Quick Links (Output Below):   Max & Min Temps   /   Climate Reports   /   Zone Forecasts
River Forecasts   /   Forestry Forecasts   /   Aviation Forecasts   /   Radars   /   Features

Terminal Aerodrome Forecast (Texarkana)

Pick a Site:
Arkadelphia | El Dorado | Fayetteville | Fort Smith | Harrison | Highfill | Hot Springs | Jonesboro
Little Rock | Monticello | Mountain Home | Pine Bluff | Texarkana
 Forecast 

KTXK 212036Z 2121/2218 02010KT P6SM SCT045
     FM212100 34009KT P6SM VCSH SCT045
     FM212200 36005KT P6SM VCTS BKN045CB BKN070
     FM220000 01008KT P6SM BKN050 BKN070
     FM220400 03004KT P6SM BKN045 OVC070
     FM220900 03006KT P6SM BKN050
     FM221300 05007KT P6SM SCT050 SCT250=


 Latest METARs (Observations) 
How to Decode METARs
22Z KTXK 212153Z VRB04KT 10SM SCT050 SCT110 33/21 A3000 RMK AO2 SLP152
         T03280206
         
21Z KTXK 212053Z 35006KT 10SM CLR 33/19 A3001 RMK AO2 SLP157 T03280194
         56021
         
20Z KTXK 211953Z VRB05KT 10SM CLR 33/19 A3002 RMK AO2 SLP161
         T03280194
         
19Z KTXK 211853Z 31009KT 10SM FEW050 33/20 A3004 RMK AO2 SLP167
         T03280200
         
18Z KTXK 211753Z 31008KT 10SM CLR 32/21 A3007 RMK AO2 SLP178 T03220211
         10322 20194 58003
         
17Z KTXK 211653Z 32005KT 10SM CLR 31/21 A3009 RMK AO2 SLP182
         T03110206
         
16Z KTXK 211553Z 30004KT 10SM CLR 30/21 A3009 RMK AO2 SLP184
         T03000211
         
15Z KTXK 211453Z 27004KT 10SM CLR 28/21 A3008 RMK AO2 SLP181 T02780206
         51014
         
14Z KTXK 211353Z 23004KT 7SM CLR 24/21 A3007 RMK AO2 SLP179
         T02440211
         
13Z KTXK 211253Z 00000KT 6SM BR CLR 21/21 A3006 RMK AO2 SLP176
         T02110206
         
***** Today's Observations (Above) *****


Back to Main Page
http://www.srh.noaa.gov/lzk/qfcst.php

USA.gov is the U.S. government's official web portal to all federal, state and local government web resources and services.